createdAt,value
2016-03-05T00:00:01.394Z,5.61
2016-03-05T00:01:01.413Z,5.57
2016-03-05T00:02:01.274Z,5.72
2016-03-05T00:03:01.199Z,5.64
2016-03-05T00:04:01.170Z,5.64
2016-03-05T00:05:01.110Z,5.59
2016-03-05T00:06:01.145Z,5.62
2016-03-05T00:07:01.038Z,5.59
2016-03-05T00:08:00.868Z,5.57
2016-03-05T00:09:00.887Z,5.62
2016-03-05T00:10:00.795Z,5.53
2016-03-05T00:11:00.783Z,5.57
2016-03-05T00:12:00.786Z,5.43
2016-03-05T00:13:00.898Z,5.46
2016-03-05T00:14:00.557Z,5.56
2016-03-05T00:15:00.512Z,5.48
2016-03-05T00:16:00.547Z,5.5
2016-03-05T00:17:00.424Z,5.41
2016-03-05T00:18:00.553Z,5.39
2016-03-05T00:19:00.367Z,5.41
2016-03-05T00:20:00.213Z,5.41
2016-03-05T00:21:00.288Z,5.44
2016-03-05T00:22:00.154Z,5.46
2016-03-05T00:23:00.051Z,5.38
2016-03-05T00:23:59.964Z,5.43
2016-03-05T00:24:59.908Z,5.43
2016-03-05T00:25:59.842Z,5.44
2016-03-05T00:26:59.777Z,5.47
2016-03-05T00:27:59.748Z,5.33
2016-03-05T00:28:59.669Z,5.35
2016-03-05T00:29:59.585Z,5.33
2016-03-05T00:30:59.521Z,5.43
2016-03-05T00:31:59.554Z,5.3
2016-03-05T00:32:59.429Z,5.38
2016-03-05T00:33:59.698Z,5.3
2016-03-05T00:34:59.308Z,5.32
2016-03-05T00:35:59.200Z,5.25
2016-03-05T00:36:59.186Z,5.32
2016-03-05T00:37:59.142Z,5.38
2016-03-05T00:38:59.080Z,5.35
2016-03-05T00:39:59.035Z,5.35
2016-03-05T00:40:58.975Z,5.39
2016-03-05T00:41:58.869Z,5.35
2016-03-05T00:42:58.919Z,5.38
2016-03-05T00:43:58.765Z,5.44
2016-03-05T00:44:58.721Z,5.38
2016-03-05T00:45:58.645Z,5.43
2016-03-05T00:46:58.585Z,5.35
2016-03-05T00:47:58.572Z,5.38
2016-03-05T00:48:58.591Z,5.38
2016-03-05T00:49:58.437Z,5.3
2016-03-05T00:50:58.378Z,5.36
2016-03-05T00:51:58.302Z,5.36
2016-03-05T00:52:58.289Z,5.43
2016-03-05T00:53:58.182Z,5.33
2016-03-05T00:54:58.123Z,5.33
2016-03-05T00:55:58.079Z,5.41
2016-03-05T00:56:58.034Z,5.43
2016-03-05T00:57:57.912Z,5.35
2016-03-05T00:58:57.961Z,5.36
2016-03-05T00:59:57.839Z,5.33
2016-03-05T01:00:57.826Z,5.35
2016-03-05T01:01:57.766Z,5.38
2016-03-05T01:02:57.676Z,5.32
2016-03-05T01:03:57.631Z,5.33
2016-03-05T01:04:57.634Z,5.33
2016-03-05T01:05:57.496Z,5.38
2016-03-05T01:06:57.452Z,5.38
2016-03-05T01:07:57.391Z,5.35
2016-03-05T01:08:57.333Z,5.32
2016-03-05T01:09:57.288Z,5.32
2016-03-05T01:10:57.275Z,5.29
2016-03-05T01:11:57.199Z,5.29
2016-03-05T01:12:57.093Z,5.32
2016-03-05T01:13:57.126Z,5.33
2016-03-05T01:14:57.004Z,5.36
2016-03-05T01:15:56.960Z,5.32
2016-03-05T01:16:56.901Z,5.29
2016-03-05T01:17:56.794Z,5.21
2016-03-05T01:18:56.734Z,5.25
2016-03-05T01:19:56.659Z,5.2
2016-03-05T01:20:56.645Z,5.23
2016-03-05T01:21:56.617Z,5.3
2016-03-05T01:22:56.541Z,5.3
2016-03-05T01:23:56.545Z,5.28
2016-03-05T01:24:56.407Z,5.21
2016-03-05T01:25:56.378Z,5.23
2016-03-05T01:26:56.333Z,5.17
2016-03-05T01:27:56.274Z,5.12
2016-03-05T01:28:56.183Z,5.17
2016-03-05T01:29:56.155Z,5.23
2016-03-05T01:30:56.125Z,5.21
2016-03-05T01:31:56.050Z,5.25
2016-03-05T01:32:56.038Z,5.18
2016-03-05T01:33:55.916Z,5.21
2016-03-05T01:34:55.918Z,5.25
2016-03-05T01:35:55.779Z,5.21
2016-03-05T01:36:55.001Z,5.15
2016-03-05T01:37:55.661Z,5.08
2016-03-05T01:38:55.616Z,5.17
2016-03-05T01:39:55.541Z,5.25
2016-03-05T01:40:55.590Z,5.2
2016-03-05T01:41:55.452Z,5.25
2016-03-05T01:42:55.517Z,5.18
2016-03-05T01:43:55.395Z,5.17
2016-03-05T01:44:55.304Z,5.28
2016-03-05T01:45:55.244Z,5.2
2016-03-05T01:46:55.232Z,5.23
2016-03-05T01:47:55.093Z,5.15
2016-03-05T01:48:55.081Z,5
2016-03-05T01:49:55.067Z,5.08
2016-03-05T01:50:54.898Z,5.08
2016-03-05T01:51:54.947Z,5.14
2016-03-05T01:52:54.779Z,5.18
2016-03-05T01:53:54.751Z,5.08
2016-03-05T01:54:54.675Z,4.97
2016-03-05T01:55:54.645Z,5.08
2016-03-05T01:56:54.648Z,5.11
2016-03-05T01:57:54.480Z,5.1
2016-03-05T01:58:54.451Z,5.11
2016-03-05T01:59:54.406Z,5.08
2016-03-05T02:00:54.332Z,5.2
2016-03-05T02:01:54.287Z,5.17
2016-03-05T02:02:54.274Z,5.18
2016-03-05T02:03:54.167Z,5.12
2016-03-05T02:04:54.138Z,5.1
2016-03-05T02:05:54.080Z,5.08
2016-03-05T02:06:54.036Z,5.07
2016-03-05T02:07:53.210Z,5.15
2016-03-05T02:08:53.900Z,5.18
2016-03-05T02:09:53.824Z,5.21
2016-03-05T02:10:53.733Z,5.2
2016-03-05T02:11:53.688Z,5.21
2016-03-05T02:12:53.629Z,5.26
2016-03-05T02:13:53.586Z,5.18
2016-03-05T02:14:53.635Z,5.23
2016-03-05T02:15:53.482Z,5.25
2016-03-05T02:16:53.394Z,5.18
2016-03-05T02:17:53.334Z,5.32
2016-03-05T02:18:53.336Z,5.26
2016-03-05T02:19:53.261Z,5.32
2016-03-05T02:20:53.232Z,5.21
2016-03-05T02:21:53.141Z,5.29
2016-03-05T02:22:53.145Z,5.29
2016-03-05T02:23:53.069Z,5.26
2016-03-05T02:24:53.025Z,5.35
2016-03-05T02:25:52.965Z,5.32
2016-03-05T02:26:52.858Z,5.32
2016-03-05T02:27:52.845Z,5.26
2016-03-05T02:28:52.723Z,5.26
2016-03-05T02:29:52.679Z,5.28
2016-03-05T02:30:52.604Z,5.3
2016-03-05T02:31:52.543Z,5.33
2016-03-05T02:32:52.468Z,5.33
2016-03-05T02:33:52.409Z,5.36
2016-03-05T02:34:52.349Z,5.38
2016-03-05T02:35:52.336Z,5.32
2016-03-05T02:36:52.292Z,5.32
2016-03-05T02:37:52.232Z,5.23
2016-03-05T02:38:52.156Z,5.33
2016-03-05T02:39:52.112Z,5.28
2016-03-05T02:40:52.036Z,5.28
2016-03-05T02:41:51.836Z,5.3
2016-03-05T02:42:51.917Z,5.32
2016-03-05T02:43:51.873Z,5.3
2016-03-05T02:44:51.876Z,5.21
2016-03-05T02:45:51.753Z,5.33
2016-03-05T02:46:51.787Z,5.3
2016-03-05T02:47:51.649Z,5.26
2016-03-05T02:48:51.621Z,5.23
2016-03-05T02:49:51.544Z,5.15
2016-03-05T02:50:51.470Z,5.21
2016-03-05T02:51:51.380Z,5.21
2016-03-05T02:52:51.413Z,5.17
2016-03-05T02:53:51.369Z,5.21
2016-03-05T02:54:51.199Z,5.2
2016-03-05T02:55:51.186Z,5.2
2016-03-05T02:56:51.110Z,5.17
2016-03-05T02:57:51.066Z,5.12
2016-03-05T02:58:51.038Z,5.18
2016-03-05T02:59:51.072Z,5.25
2016-03-05T03:00:50.856Z,5.2
2016-03-05T03:01:50.843Z,5.23
2016-03-05T03:02:50.783Z,5.2
2016-03-05T03:03:50.707Z,5.23
2016-03-05T03:04:50.664Z,5.23
2016-03-05T03:05:50.603Z,5.2
2016-03-05T03:06:50.560Z,5.26
2016-03-05T03:07:50.453Z,5.2
2016-03-05T03:08:50.518Z,5.15
2016-03-05T03:09:50.427Z,5.11
2016-03-05T03:10:50.320Z,5.12
2016-03-05T03:11:50.261Z,5.11
2016-03-05T03:12:50.201Z,5.08
2016-03-05T03:13:50.157Z,5.08
2016-03-05T03:14:50.112Z,5.12
2016-03-05T03:15:50.100Z,5.04
2016-03-05T03:16:49.992Z,5.05
2016-03-05T03:17:49.886Z,4.94
2016-03-05T03:18:49.951Z,4.94
2016-03-05T03:19:49.783Z,4.97
2016-03-05T03:20:49.739Z,5
2016-03-05T03:21:49.678Z,5.02
2016-03-05T03:22:49.634Z,5.04
2016-03-05T03:23:49.543Z,5
2016-03-05T03:24:49.514Z,5.05
2016-03-05T03:25:49.501Z,5.1
2016-03-05T03:26:49.410Z,5.11
2016-03-05T03:27:49.366Z,5.12
2016-03-05T03:28:49.291Z,5.1
2016-03-05T03:29:49.200Z,5.11
2016-03-05T03:30:49.140Z,5.05
2016-03-05T03:31:49.112Z,5.08
2016-03-05T03:32:49.035Z,5.07
2016-03-05T03:33:48.976Z,5.07
2016-03-05T03:34:48.932Z,5.1
2016-03-05T03:35:48.888Z,5.11
2016-03-05T03:36:48.843Z,5.14
2016-03-05T03:37:48.753Z,5.11
2016-03-05T03:38:48.676Z,5.08
2016-03-05T03:39:48.648Z,5.15
2016-03-05T03:40:48.604Z,5.1
2016-03-05T03:41:48.498Z,5.11
2016-03-05T03:42:48.470Z,5.12
2016-03-05T03:43:48.395Z,5.15
2016-03-05T03:44:48.365Z,5.12
2016-03-05T03:45:48.352Z,5.1
2016-03-05T03:46:48.245Z,5.1
2016-03-05T03:47:48.170Z,5.11
2016-03-05T03:48:48.157Z,5.08
2016-03-05T03:49:48.036Z,5.08
2016-03-05T03:50:47.991Z,5.11
2016-03-05T03:51:47.962Z,5.18
2016-03-05T03:52:47.871Z,5.11
2016-03-05T03:53:47.842Z,5.07
2016-03-05T03:54:47.766Z,5.1
2016-03-05T03:55:47.691Z,5.04
2016-03-05T03:56:47.632Z,4.9
2016-03-05T03:57:47.588Z,5.04
2016-03-05T03:58:47.591Z,5
2016-03-05T03:59:47.499Z,5
2016-03-05T04:00:47.440Z,5.05
2016-03-05T04:01:47.363Z,5.08
2016-03-05T04:02:47.320Z,5.05
2016-03-05T04:03:47.228Z,5.08
2016-03-05T04:04:47.185Z,4.97
2016-03-05T04:05:47.141Z,4.97
2016-03-05T04:06:47.049Z,5
2016-03-05T04:07:47.068Z,4.99
2016-03-05T04:08:47.023Z,4.89
2016-03-05T04:09:46.932Z,4.9
2016-03-05T04:10:46.857Z,5.02
2016-03-05T04:11:46.766Z,4.93
2016-03-05T04:12:46.754Z,5
2016-03-05T04:13:46.521Z,5.02
2016-03-05T04:14:46.665Z,4.94
2016-03-05T04:15:46.558Z,4.97
2016-03-05T04:16:46.513Z,5.02
2016-03-05T04:17:46.453Z,5.04
2016-03-05T04:18:46.442Z,5.05
2016-03-05T04:19:46.334Z,4.94
2016-03-05T04:20:46.275Z,4.97
2016-03-05T04:21:46.325Z,4.96
2016-03-05T04:22:46.170Z,4.89
2016-03-05T04:23:46.110Z,4.92
2016-03-05T04:24:46.066Z,4.96
2016-03-05T04:25:45.976Z,4.92
2016-03-05T04:26:45.916Z,4.97
2016-03-05T04:27:45.888Z,4.86
2016-03-05T04:28:45.905Z,5.02
2016-03-05T04:29:45.783Z,4.97
2016-03-05T04:30:45.723Z,5.02
2016-03-05T04:31:45.663Z,4.86
2016-03-05T04:32:45.743Z,4.97
2016-03-05T04:33:45.529Z,4.89
2016-03-05T04:34:45.532Z,4.92
2016-03-05T04:35:45.518Z,4.99
2016-03-05T04:36:45.318Z,4.9
2016-03-05T04:37:45.273Z,4.89
2016-03-05T04:38:45.245Z,4.96
2016-03-05T04:39:45.184Z,4.94
2016-03-05T04:40:45.125Z,4.99
2016-03-05T04:41:45.082Z,5.04
2016-03-05T04:42:45.021Z,4.94
2016-03-05T04:43:44.946Z,4.96
2016-03-05T04:44:44.995Z,4.97
2016-03-05T04:45:44.935Z,5.02
2016-03-05T04:46:44.797Z,4.99
2016-03-05T04:47:44.801Z,5.02
2016-03-05T04:48:44.740Z,5.11
2016-03-05T04:49:44.603Z,5.07
2016-03-05T04:50:44.511Z,5.08
2016-03-05T04:51:44.514Z,5.07
2016-03-05T04:52:44.516Z,5.07
2016-03-05T04:53:44.378Z,5.1
2016-03-05T04:54:44.288Z,5.08
2016-03-05T04:55:44.228Z,5.02
2016-03-05T04:56:44.278Z,4.94
2016-03-05T04:57:44.172Z,4.99
2016-03-05T04:58:44.111Z,5
2016-03-05T04:59:44.019Z,4.97
2016-03-05T05:00:43.944Z,4.93
2016-03-05T05:01:43.900Z,4.93
2016-03-05T05:02:43.872Z,4.89
2016-03-05T05:03:43.813Z,4.9
2016-03-05T05:04:43.752Z,4.9
2016-03-05T05:05:43.724Z,4.94
2016-03-05T05:06:43.631Z,4.93
2016-03-05T05:07:43.680Z,4.86
2016-03-05T05:08:43.480Z,4.87
2016-03-05T05:09:42.701Z,4.82
2016-03-05T05:10:43.392Z,4.9
2016-03-05T05:11:43.333Z,4.87
2016-03-05T05:12:43.288Z,4.77
2016-03-05T05:13:43.228Z,4.74
2016-03-05T05:14:43.183Z,4.67
2016-03-05T05:15:43.093Z,4.7
2016-03-05T05:16:43.063Z,4.74
2016-03-05T05:17:43.066Z,4.87
2016-03-05T05:18:42.944Z,4.75
2016-03-05T05:19:42.869Z,4.68
2016-03-05T05:20:42.810Z,4.63
2016-03-05T05:21:42.780Z,4.63
2016-03-05T05:22:42.721Z,4.66
2016-03-05T05:23:42.645Z,4.63
2016-03-05T05:24:42.648Z,4.66
2016-03-05T05:25:42.509Z,4.62
2016-03-05T05:26:42.466Z,4.63
2016-03-05T05:27:42.407Z,4.59
2016-03-05T05:28:42.315Z,4.63
2016-03-05T05:29:42.287Z,4.62
2016-03-05T05:30:42.242Z,4.62
2016-03-05T05:31:42.261Z,4.71
2016-03-05T05:32:42.123Z,4.73
2016-03-05T05:33:42.141Z,4.7
2016-03-05T05:34:41.972Z,4.63
2016-03-05T05:35:41.974Z,4.66
2016-03-05T05:36:41.962Z,4.73
2016-03-05T05:37:41.855Z,4.74
2016-03-05T05:38:41.763Z,4.6
2016-03-05T05:39:41.703Z,4.63
2016-03-05T05:40:41.691Z,4.7
2016-03-05T05:41:41.663Z,4.78
2016-03-05T05:42:41.525Z,4.63
2016-03-05T05:43:41.480Z,4.63
2016-03-05T05:44:41.514Z,4.68
2016-03-05T05:45:41.392Z,4.77
2016-03-05T05:46:41.332Z,4.73
2016-03-05T05:47:41.257Z,4.8
2016-03-05T05:48:41.196Z,4.7
2016-03-05T05:49:41.247Z,4.68
2016-03-05T05:50:41.108Z,4.62
2016-03-05T05:51:41.111Z,4.66
2016-03-05T05:52:40.942Z,4.62
2016-03-05T05:53:40.898Z,4.68
2016-03-05T05:54:40.853Z,4.66
2016-03-05T05:55:40.826Z,4.59
2016-03-05T05:56:40.766Z,4.59
2016-03-05T05:57:40.674Z,4.63
2016-03-05T05:58:40.615Z,4.62
2016-03-05T05:59:40.507Z,4.67
2016-03-05T06:00:40.510Z,4.63
2016-03-05T06:01:40.435Z,4.6
2016-03-05T06:02:40.359Z,4.63
2016-03-05T06:03:40.363Z,4.73
2016-03-05T06:04:40.271Z,4.66
2016-03-05T06:05:40.290Z,4.71
2016-03-05T06:06:40.167Z,4.7
2016-03-05T06:07:40.076Z,4.67
2016-03-05T06:08:40.032Z,4.63
2016-03-05T06:09:39.956Z,4.68
2016-03-05T06:10:39.912Z,4.6
2016-03-05T06:11:39.853Z,4.66
2016-03-05T06:12:39.887Z,4.66
2016-03-05T06:13:39.749Z,4.74
2016-03-05T06:14:39.673Z,4.67
2016-03-05T06:15:39.644Z,4.66
2016-03-05T06:16:39.569Z,4.63
2016-03-05T06:17:39.509Z,4.6
2016-03-05T06:18:39.449Z,4.75
2016-03-05T06:19:39.391Z,4.66
2016-03-05T06:20:39.408Z,4.62
2016-03-05T06:21:39.286Z,4.58
2016-03-05T06:22:39.273Z,4.58
2016-03-05T06:23:39.306Z,4.66
2016-03-05T06:24:39.246Z,4.63
2016-03-05T06:25:39.077Z,4.73
2016-03-05T06:26:39.018Z,4.63
2016-03-05T06:27:38.912Z,4.62
2016-03-05T06:28:38.883Z,4.73
2016-03-05T06:29:38.901Z,4.73
2016-03-05T06:30:38.794Z,4.67
2016-03-05T06:31:38.687Z,4.82
2016-03-05T06:32:38.613Z,4.74
2016-03-05T06:33:38.474Z,4.74
2016-03-05T06:34:37.805Z,4.66
2016-03-05T06:35:38.480Z,4.74
2016-03-05T06:36:38.451Z,4.74
2016-03-05T06:37:38.422Z,4.78
2016-03-05T06:38:38.300Z,4.9
2016-03-05T06:39:38.334Z,4.9
2016-03-05T06:40:38.431Z,5
2016-03-05T06:41:38.200Z,5
2016-03-05T06:42:38.170Z,4.97
2016-03-05T06:43:38.080Z,4.9
2016-03-05T06:44:38.144Z,4.9
2016-03-05T06:45:37.944Z,4.92
2016-03-05T06:46:37.680Z,4.97
2016-03-05T06:47:37.793Z,4.89
2016-03-05T06:48:37.890Z,4.97
2016-03-05T06:49:37.674Z,4.96
2016-03-05T06:50:37.724Z,5
2016-03-05T06:51:37.601Z,4.92
2016-03-05T06:52:37.494Z,4.9
2016-03-05T06:53:37.434Z,5
2016-03-05T06:54:37.374Z,5.1
2016-03-05T06:55:37.315Z,5.12
2016-03-05T06:56:37.286Z,5.07
2016-03-05T06:57:37.258Z,5.25
2016-03-05T06:58:37.245Z,5.17
2016-03-05T06:59:37.169Z,5.2
2016-03-05T07:00:37.078Z,5.23
2016-03-05T07:01:37.034Z,5.21
2016-03-05T07:02:36.974Z,5.23
2016-03-05T07:03:36.914Z,5.32
2016-03-05T07:04:36.996Z,5.36
2016-03-05T07:05:36.764Z,5.35
2016-03-05T07:06:36.782Z,5.38
2016-03-05T07:07:36.675Z,5.36
2016-03-05T07:08:36.568Z,5.43
2016-03-05T07:09:36.602Z,5.39
2016-03-05T07:10:36.495Z,5.39
2016-03-05T07:11:36.436Z,5.38
2016-03-05T07:12:36.361Z,5.39
2016-03-05T07:13:36.363Z,5.48
2016-03-05T07:14:36.538Z,5.57
2016-03-05T07:15:35.571Z,5.46
2016-03-05T07:16:36.464Z,5.44
2016-03-05T07:17:36.186Z,5.46
2016-03-05T07:18:36.033Z,5.44
2016-03-05T07:19:36.083Z,5.41
2016-03-05T07:20:35.898Z,5.43
2016-03-05T07:21:36.119Z,5.46
2016-03-05T07:22:35.918Z,5.39
2016-03-05T07:23:35.843Z,5.61
2016-03-05T07:24:35.690Z,5.61
2016-03-05T07:25:35.833Z,5.56
2016-03-05T07:26:35.554Z,5.62
2016-03-05T07:27:35.479Z,5.64
2016-03-05T07:28:35.669Z,5.64
2016-03-05T07:29:35.344Z,5.59
2016-03-05T07:30:35.331Z,5.61
2016-03-05T07:31:35.365Z,5.69
2016-03-05T07:32:35.226Z,5.65
2016-03-05T07:33:35.105Z,5.65
2016-03-05T07:34:35.123Z,5.68
2016-03-05T07:35:35.062Z,5.8
2016-03-05T07:36:35.018Z,5.75
2016-03-05T07:37:35.068Z,5.83
2016-03-05T07:38:34.867Z,5.8
2016-03-05T07:39:35.026Z,5.87
2016-03-05T07:40:34.748Z,5.9
2016-03-05T07:41:34.704Z,5.98
2016-03-05T07:42:34.629Z,5.87
2016-03-05T07:43:34.662Z,5.83
2016-03-05T07:44:34.634Z,5.86
2016-03-05T07:45:34.480Z,5.97
2016-03-05T07:46:34.452Z,5.9
2016-03-05T07:47:34.408Z,6.05
2016-03-05T07:48:34.379Z,5.99
2016-03-05T07:49:34.336Z,6.09
2016-03-05T07:50:34.291Z,6.14
2016-03-05T07:51:34.309Z,6.12
2016-03-05T07:52:34.093Z,6.12
2016-03-05T07:53:34.236Z,6.17
2016-03-05T07:54:33.989Z,6.31
2016-03-05T07:55:34.132Z,6.3
2016-03-05T07:56:33.947Z,6.3
2016-03-05T07:57:33.794Z,6.24
2016-03-05T07:58:34.000Z,6.42
2016-03-05T07:59:33.815Z,6.41
2016-03-05T08:00:33.912Z,6.35
2016-03-05T08:01:33.648Z,6.56
2016-03-05T08:02:33.605Z,6.52
2016-03-05T08:03:33.545Z,6.51
2016-03-05T08:04:33.469Z,6.59
2016-03-05T08:05:33.223Z,6.56
2016-03-05T08:06:33.319Z,6.64
2016-03-05T08:07:33.259Z,6.62
2016-03-05T08:08:33.184Z,6.62
2016-03-05T08:09:33.155Z,6.74
2016-03-05T08:10:33.080Z,6.62
2016-03-05T08:11:33.035Z,6.63
2016-03-05T08:12:33.054Z,6.74
2016-03-05T08:13:32.916Z,6.7
2016-03-05T08:14:32.856Z,6.75
2016-03-05T08:15:32.812Z,6.74
2016-03-05T08:16:32.956Z,6.82
2016-03-05T08:17:32.724Z,6.81
2016-03-05T08:18:32.680Z,6.79
2016-03-05T08:19:32.635Z,6.82
2016-03-05T08:20:32.606Z,6.92
2016-03-05T08:21:32.453Z,6.95
2016-03-05T08:22:32.440Z,6.93
2016-03-05T08:23:32.303Z,6.96
2016-03-05T08:24:32.368Z,6.97
2016-03-05T08:25:32.245Z,7
2016-03-05T08:26:32.342Z,7.03
2016-03-05T08:27:32.189Z,7.05
2016-03-05T08:28:32.144Z,7.07
2016-03-05T08:29:32.147Z,7.07
2016-03-05T08:30:32.055Z,7.17
2016-03-05T08:31:31.933Z,7.1
2016-03-05T08:32:31.889Z,7.07
2016-03-05T08:33:31.797Z,7.06
2016-03-05T08:34:31.833Z,7.13
2016-03-05T08:35:31.710Z,7.17
2016-03-05T08:36:31.681Z,7.14
2016-03-05T08:37:31.590Z,7.14
2016-03-05T08:38:31.530Z,7.2
2016-03-05T08:39:31.471Z,7.25
2016-03-05T08:40:31.473Z,7.2
2016-03-05T08:41:31.429Z,7.25
2016-03-05T08:42:31.354Z,7.28
2016-03-05T08:43:31.294Z,7.2
2016-03-05T08:44:31.281Z,7.28
2016-03-05T08:45:31.190Z,7.17
2016-03-05T08:46:31.130Z,7.2
2016-03-05T08:47:31.054Z,7.29
2016-03-05T08:48:31.120Z,7.23
2016-03-05T08:49:30.950Z,7.28
2016-03-05T08:50:30.876Z,7.32
2016-03-05T08:51:30.862Z,7.25
2016-03-05T08:52:30.771Z,7.28
2016-03-05T08:53:30.883Z,7.28
2016-03-05T08:54:30.683Z,7.29
2016-03-05T08:55:30.576Z,7.35
2016-03-05T08:56:30.547Z,7.38
2016-03-05T08:57:30.550Z,7.39
2016-03-05T08:58:30.459Z,7.39
2016-03-05T08:59:30.353Z,7.35
2016-03-05T09:00:30.292Z,7.45
2016-03-05T09:01:30.248Z,7.4
2016-03-05T09:02:30.205Z,7.45
2016-03-05T09:03:30.145Z,7.39
2016-03-05T09:04:30.085Z,7.42
2016-03-05T09:05:30.024Z,7.48
2016-03-05T09:06:29.933Z,7.5
2016-03-05T09:07:29.921Z,7.51
2016-03-05T09:08:29.877Z,7.57
2016-03-05T09:09:30.130Z,7.58
2016-03-05T09:10:29.772Z,7.63
2016-03-05T09:11:29.713Z,7.63
2016-03-05T09:12:29.668Z,7.7
2016-03-05T09:13:29.624Z,7.7
2016-03-05T09:14:29.533Z,7.75
2016-03-05T09:15:29.505Z,7.82
2016-03-05T09:16:29.429Z,7.82
2016-03-05T09:17:29.370Z,7.87
2016-03-05T09:18:29.356Z,7.8
2016-03-05T09:19:29.281Z,7.7
2016-03-05T09:20:29.190Z,7.83
2016-03-05T09:21:29.131Z,7.77
2016-03-05T09:22:29.086Z,7.83
2016-03-05T09:23:29.057Z,7.8
2016-03-05T09:24:29.014Z,7.87
2016-03-05T09:25:28.906Z,7.95
2016-03-05T09:26:28.878Z,8.01
2016-03-05T09:27:28.822Z,8.01
2016-03-05T09:28:28.763Z,8.13
2016-03-05T09:29:28.657Z,8.05
2016-03-05T09:30:28.818Z,8.03
2016-03-05T09:31:28.775Z,8.1
2016-03-05T09:32:28.491Z,8.13
2016-03-05T09:33:28.457Z,8.19
2016-03-05T09:34:28.470Z,8.23
2016-03-05T09:35:28.312Z,8.19
2016-03-05T09:36:28.216Z,8.26
2016-03-05T09:37:28.185Z,8.2
2016-03-05T09:38:28.123Z,8.31
2016-03-05T09:39:28.124Z,8.34
2016-03-05T09:40:28.046Z,8.3
2016-03-05T09:41:27.954Z,8.28
2016-03-05T09:42:27.924Z,8.44
2016-03-05T09:43:27.865Z,8.37
2016-03-05T09:44:27.773Z,8.31
2016-03-05T09:45:27.744Z,8.38
2016-03-05T09:46:27.716Z,8.41
2016-03-05T09:47:27.624Z,8.46
2016-03-05T09:48:27.595Z,8.51
2016-03-05T09:49:27.534Z,8.56
2016-03-05T09:50:27.489Z,8.58
2016-03-05T09:51:27.430Z,8.64
2016-03-05T09:52:27.323Z,8.63
2016-03-05T09:53:27.310Z,8.71
2016-03-05T09:54:27.235Z,8.74
2016-03-05T09:55:27.175Z,8.89
2016-03-05T09:56:27.178Z,8.87
2016-03-05T09:57:27.086Z,8.85
2016-03-05T09:58:27.042Z,8.88
2016-03-05T09:59:26.983Z,8.89
2016-03-05T10:00:26.955Z,9
2016-03-05T10:01:26.972Z,8.92
2016-03-05T10:02:26.912Z,9.02
2016-03-05T10:03:26.790Z,9.08
2016-03-05T10:04:26.746Z,9.03
2016-03-05T10:05:26.983Z,9.04
2016-03-05T10:06:26.611Z,8.97
2016-03-05T10:07:26.582Z,8.99
2016-03-05T10:08:26.523Z,9.13
2016-03-05T10:09:26.493Z,9.13
2016-03-05T10:10:26.371Z,9.11
2016-03-05T10:11:26.342Z,9.18
2016-03-05T10:12:26.440Z,9.23
2016-03-05T10:13:26.239Z,9.14
2016-03-05T10:14:26.226Z,9.22
2016-03-05T10:15:26.135Z,9.26
2016-03-05T10:16:26.107Z,9.26
2016-03-05T10:17:25.984Z,9.28
2016-03-05T10:18:25.986Z,9.34
2016-03-05T10:19:25.911Z,9.39
2016-03-05T10:20:25.883Z,9.43
2016-03-05T10:21:25.870Z,9.55
2016-03-05T10:22:25.811Z,9.62
2016-03-05T10:23:25.703Z,9.72
2016-03-05T10:24:25.659Z,9.72
2016-03-05T10:25:25.599Z,9.74
2016-03-05T10:26:25.571Z,9.76
2016-03-05T10:27:25.511Z,9.89
2016-03-05T10:28:25.483Z,9.92
2016-03-05T10:29:25.236Z,9.94
2016-03-05T10:30:25.582Z,9.98
2016-03-05T10:31:25.428Z,10.01
2016-03-05T10:32:25.227Z,10.05
2016-03-05T10:33:25.136Z,10.01
2016-03-05T10:34:25.107Z,9.98
2016-03-05T10:35:25.110Z,9.95
2016-03-05T10:36:25.004Z,9.92
2016-03-05T10:37:24.976Z,10.01
2016-03-05T10:38:24.900Z,10.02
2016-03-05T10:39:24.856Z,10.01
2016-03-05T10:40:24.093Z,10.02
2016-03-05T10:41:24.751Z,9.94
2016-03-05T10:42:24.723Z,10.07
2016-03-05T10:43:24.678Z,10.02
2016-03-05T10:44:24.573Z,10.05
2016-03-05T10:45:24.591Z,10.13
2016-03-05T10:46:24.453Z,10.12
2016-03-05T10:47:24.424Z,10.1
2016-03-05T10:48:24.395Z,10.04
2016-03-05T10:49:24.320Z,10.1
2016-03-05T10:50:24.323Z,10.04
2016-03-05T10:51:24.264Z,10.02
2016-03-05T10:52:24.219Z,9.99
2016-03-05T10:53:24.362Z,10.01
2016-03-05T10:54:24.084Z,10.04
2016-03-05T10:55:24.070Z,9.98
2016-03-05T10:56:23.980Z,9.91
2016-03-05T10:57:23.935Z,10.01
2016-03-05T10:58:23.126Z,9.91
2016-03-05T10:59:24.080Z,10.04
2016-03-05T11:00:23.772Z,9.95
2016-03-05T11:01:23.821Z,9.98
2016-03-05T11:02:23.652Z,9.98
2016-03-05T11:03:23.638Z,9.97
2016-03-05T11:04:23.516Z,9.92
2016-03-05T11:05:23.597Z,9.99
2016-03-05T11:06:23.460Z,9.92
2016-03-05T11:07:23.431Z,9.94
2016-03-05T11:08:23.356Z,9.97
2016-03-05T11:09:23.358Z,9.91
2016-03-05T11:10:23.204Z,9.98
2016-03-05T11:11:23.270Z,9.99
2016-03-05T11:12:23.115Z,9.99
2016-03-05T11:13:23.166Z,9.92
2016-03-05T11:14:23.106Z,9.97
2016-03-05T11:15:23.031Z,10.01
2016-03-05T11:16:22.909Z,9.87
2016-03-05T11:17:22.879Z,9.92
2016-03-05T11:18:22.898Z,10.01
2016-03-05T11:19:22.822Z,10.01
2016-03-05T11:20:22.731Z,10.04
2016-03-05T11:21:22.938Z,9.95
2016-03-05T11:22:22.597Z,10.02
2016-03-05T11:23:22.568Z,9.98
2016-03-05T11:24:22.508Z,10.04
2016-03-05T11:25:22.448Z,10.04
2016-03-05T11:26:22.466Z,10.01
2016-03-05T11:27:22.360Z,9.99
2016-03-05T11:28:22.299Z,9.98
2016-03-05T11:29:22.271Z,9.99
2016-03-05T11:30:22.228Z,10.04
2016-03-05T11:31:22.183Z,10.02
2016-03-05T11:32:22.155Z,10.04
2016-03-05T11:33:22.047Z,10.01
2016-03-05T11:34:21.972Z,10.07
2016-03-05T11:35:21.927Z,10.02
2016-03-05T11:36:21.868Z,10.01
2016-03-05T11:37:21.872Z,10.07
2016-03-05T11:38:21.780Z,10.02
2016-03-05T11:39:21.721Z,10.04
2016-03-05T11:40:21.676Z,10.01
2016-03-05T11:41:21.616Z,9.98
2016-03-05T11:42:21.540Z,10.02
2016-03-05T11:43:21.496Z,10.04
2016-03-05T11:44:21.406Z,10.01
2016-03-05T11:45:21.377Z,10.01
2016-03-05T11:46:21.396Z,9.99
2016-03-05T11:47:21.492Z,9.98
2016-03-05T11:48:21.588Z,9.95
2016-03-05T11:49:21.169Z,9.94
2016-03-05T11:50:21.141Z,10.01
2016-03-05T11:51:21.095Z,10.05
2016-03-05T11:52:21.131Z,9.97
2016-03-05T11:53:21.242Z,10.07
2016-03-05T11:54:21.136Z,10.04
2016-03-05T11:55:20.856Z,9.91
2016-03-05T11:56:20.891Z,9.94
2016-03-05T11:57:20.909Z,9.77
2016-03-05T11:58:20.786Z,9.73
2016-03-05T11:59:20.712Z,9.84
2016-03-05T12:00:20.589Z,9.86
2016-03-05T12:01:20.592Z,9.86
2016-03-05T12:02:20.532Z,9.82
2016-03-05T12:03:20.488Z,9.83
2016-03-05T12:04:20.569Z,9.84
2016-03-05T12:05:20.462Z,9.87
2016-03-05T12:06:20.387Z,9.77
2016-03-05T12:07:20.249Z,9.8
2016-03-05T12:08:20.174Z,9.83
2016-03-05T12:09:20.192Z,9.79
2016-03-05T12:10:20.132Z,9.76
2016-03-05T12:11:20.040Z,9.74
2016-03-05T12:12:20.027Z,9.82
2016-03-05T12:13:19.952Z,9.77
2016-03-05T12:14:19.986Z,9.77
2016-03-05T12:15:19.833Z,9.72
2016-03-05T12:16:19.757Z,9.77
2016-03-05T12:17:19.713Z,9.66
2016-03-05T12:18:19.762Z,9.74
2016-03-05T12:19:19.687Z,9.61
2016-03-05T12:20:19.628Z,9.72
2016-03-05T12:21:19.567Z,9.66
2016-03-05T12:22:19.665Z,9.74
2016-03-05T12:23:19.479Z,9.73
2016-03-05T12:24:19.357Z,9.72
2016-03-05T12:25:19.345Z,9.65
2016-03-05T12:26:19.300Z,9.68
2016-03-05T12:27:19.239Z,9.68
2016-03-05T12:28:19.164Z,9.73
2016-03-05T12:29:19.089Z,9.66
2016-03-05T12:30:19.092Z,9.74
2016-03-05T12:31:19.017Z,9.66
2016-03-05T12:32:18.956Z,9.68
2016-03-05T12:33:19.225Z,9.73
2016-03-05T12:34:18.883Z,9.72
2016-03-05T12:35:18.918Z,9.74
2016-03-05T12:36:18.780Z,9.68
2016-03-05T12:37:18.751Z,9.54
2016-03-05T12:38:18.645Z,9.55
2016-03-05T12:39:18.616Z,9.55
2016-03-05T12:40:18.510Z,9.61
2016-03-05T12:41:18.340Z,9.55
2016-03-05T12:42:18.687Z,9.5
2016-03-05T12:43:18.471Z,9.48
2016-03-05T12:44:18.613Z,9.54
2016-03-05T12:45:18.226Z,9.51
2016-03-05T12:46:18.276Z,9.55
2016-03-05T12:47:18.169Z,9.56
2016-03-05T12:48:18.031Z,9.58
2016-03-05T12:49:17.206Z,9.48
2016-03-05T12:50:17.958Z,9.51
2016-03-05T12:51:17.899Z,9.58
2016-03-05T12:52:17.807Z,9.48
2016-03-05T12:53:17.997Z,9.51
2016-03-05T12:54:17.829Z,9.56
2016-03-05T12:55:17.706Z,9.51
2016-03-05T12:56:17.865Z,9.56
2016-03-05T12:57:17.570Z,9.58
2016-03-05T12:58:17.683Z,9.56
2016-03-05T12:59:17.514Z,9.54
2016-03-05T13:00:17.439Z,9.58
2016-03-05T13:01:17.378Z,9.55
2016-03-05T13:02:17.334Z,9.58
2016-03-05T13:03:17.368Z,9.61
2016-03-05T13:04:17.246Z,9.59
2016-03-05T13:05:17.155Z,9.58
2016-03-05T13:06:17.219Z,9.61
2016-03-05T13:07:17.270Z,9.5
2016-03-05T13:08:17.257Z,9.5
2016-03-05T13:09:17.102Z,9.59
2016-03-05T13:10:16.918Z,9.61
2016-03-05T13:11:16.827Z,9.61
2016-03-05T13:12:16.986Z,9.55
2016-03-05T13:13:16.785Z,9.58
2016-03-05T13:14:16.788Z,9.51
2016-03-05T13:15:16.651Z,9.55
2016-03-05T13:16:16.560Z,9.56
2016-03-05T13:17:16.499Z,9.55
2016-03-05T13:18:16.643Z,9.58
2016-03-05T13:19:16.676Z,9.55
2016-03-05T13:20:16.476Z,9.44